createdAt,value
2022-12-03T00:02:23.868Z,42.20
2022-12-03T00:04:51.426Z,37.22
2022-12-03T00:07:18.398Z,32.40
2022-12-03T00:09:45.427Z,33.22
2022-12-03T00:12:12.161Z,41.03
2022-12-03T00:14:44.915Z,34.17
2022-12-03T00:17:12.028Z,30.30
2022-12-03T00:19:39.053Z,38.25
2022-12-03T00:22:05.768Z,40.30
2022-12-03T00:24:33.834Z,35.33
2022-12-03T00:27:00.814Z,48.90
2022-12-03T00:29:27.950Z,34.40
2022-12-03T00:31:54.879Z,40.42
2022-12-03T00:34:25.138Z,37.63
2022-12-03T00:36:54.541Z,35.55
2022-12-03T00:39:21.579Z,45.70
2022-12-03T00:41:48.355Z,41.33
2022-12-03T00:44:15.414Z,41.53
2022-12-03T00:46:42.264Z,42.38
2022-12-03T00:49:09.424Z,39.58
2022-12-03T00:51:36.194Z,43.33
2022-12-03T00:54:03.428Z,43.63
2022-12-03T00:56:30.196Z,35.85
2022-12-03T00:58:57.208Z,40.80
2022-12-03T01:01:24.063Z,37.78
2022-12-03T01:03:51.159Z,34.90
2022-12-03T01:06:17.873Z,38.00
2022-12-03T01:08:44.961Z,43.35
2022-12-03T01:11:31.718Z,37.97
2022-12-03T01:13:58.845Z,34.50
2022-12-03T01:16:25.692Z,45.08
2022-12-03T01:18:52.914Z,42.38
2022-12-03T01:21:19.905Z,33.92
2022-12-03T01:23:47.012Z,34.47
2022-12-03T01:26:13.794Z,42.15
2022-12-03T01:28:42.103Z,47.35
2022-12-03T01:31:27.891Z,45.70
2022-12-03T01:33:55.490Z,42.50
2022-12-03T01:36:22.477Z,31.70
2022-12-03T01:38:49.489Z,37.17
2022-12-03T01:41:20.595Z,35.78
2022-12-03T01:43:48.824Z,44.00
2022-12-03T01:46:19.858Z,39.58
2022-12-03T01:48:48.926Z,33.10
2022-12-03T01:51:16.014Z,41.58
2022-12-03T01:53:44.487Z,40.30
2022-12-03T01:56:15.838Z,38.20
2022-12-03T01:58:44.245Z,36.35
2022-12-03T02:01:14.755Z,37.38
2022-12-03T02:03:42.553Z,36.80
2022-12-03T02:06:17.978Z,40.28
2022-12-03T02:08:49.240Z,39.95
2022-12-03T02:11:27.560Z,39.72
2022-12-03T02:13:59.582Z,35.75
2022-12-03T02:16:26.498Z,40.75
2022-12-03T02:18:53.580Z,30.30
2022-12-03T02:21:29.127Z,36.47
2022-12-03T02:24:16.404Z,38.95
2022-12-03T02:26:43.200Z,33.28
2022-12-03T02:29:10.590Z,42.78
2022-12-03T02:31:37.619Z,38.83
2022-12-03T02:34:08.508Z,40.05
2022-12-03T02:36:36.713Z,36.53
2022-12-03T02:39:05.239Z,37.53
2022-12-03T02:41:51.162Z,32.38
2022-12-03T02:44:18.538Z,50.47
2022-12-03T02:46:45.361Z,40.63
2022-12-03T02:49:12.503Z,37.28
2022-12-03T02:51:39.791Z,35.63
2022-12-03T02:54:06.891Z,41.70
2022-12-03T02:56:33.720Z,38.53
2022-12-03T02:59:05.088Z,38.17
2022-12-03T03:01:32.534Z,37.80
2022-12-03T03:04:00.711Z,34.25
2022-12-03T03:06:27.511Z,37.42
2022-12-03T03:08:54.691Z,37.28
2022-12-03T03:11:21.487Z,33.22
2022-12-03T03:13:48.706Z,36.28
2022-12-03T03:16:15.621Z,39.15
2022-12-03T03:18:42.743Z,34.97
2022-12-03T03:21:09.825Z,36.80
2022-12-03T03:23:36.829Z,33.90
2022-12-03T03:26:09.894Z,35.42
2022-12-03T03:28:44.802Z,36.20
2022-12-03T03:31:13.960Z,36.97
2022-12-03T03:33:43.148Z,34.22
2022-12-03T03:36:10.075Z,35.63
2022-12-03T03:38:37.930Z,38.65
2022-12-03T03:41:07.659Z,33.40
2022-12-03T03:43:37.061Z,40.58
2022-12-03T03:46:05.464Z,35.70
2022-12-03T03:48:34.561Z,37.88
2022-12-03T03:51:09.313Z,35.53
2022-12-03T03:53:42.816Z,38.95
2022-12-03T03:56:10.610Z,37.17
2022-12-03T03:58:38.082Z,36.20
2022-12-03T04:01:04.945Z,39.13
2022-12-03T04:03:31.991Z,34.95
2022-12-03T04:05:58.755Z,32.20
2022-12-03T04:08:25.855Z,36.70
2022-12-03T04:11:11.469Z,37.80
2022-12-03T04:13:38.498Z,37.03
2022-12-03T04:16:05.282Z,35.67
2022-12-03T04:18:44.392Z,35.47
2022-12-03T04:21:38.548Z,40.17
2022-12-03T04:26:51.838Z,36.08
2022-12-03T04:29:20.048Z,36.05
2022-12-03T04:32:05.564Z,38.85
2022-12-03T04:34:52.203Z,38.10
2022-12-03T04:37:19.417Z,37.92
2022-12-03T04:39:46.470Z,39.78
2022-12-03T04:42:13.261Z,40.72
2022-12-03T04:44:40.392Z,42.95
2022-12-03T04:47:12.769Z,43.05
2022-12-03T04:49:42.530Z,41.60
2022-12-03T04:52:10.676Z,42.80
2022-12-03T04:54:38.527Z,39.22
2022-12-03T04:57:06.095Z,42.50
2022-12-03T04:59:33.557Z,42.55
2022-12-03T05:02:00.574Z,39.90
2022-12-03T05:04:27.734Z,43.17
2022-12-03T05:06:54.899Z,37.40
2022-12-03T05:09:22.096Z,38.03
2022-12-03T05:11:48.894Z,48.22
2022-12-03T05:14:15.902Z,39.08
2022-12-03T05:16:42.752Z,47.08
2022-12-03T05:19:09.879Z,42.97
2022-12-03T05:21:36.649Z,44.20
2022-12-03T05:24:03.929Z,42.97
2022-12-03T05:26:30.982Z,42.97
2022-12-03T05:28:58.028Z,42.60
2022-12-03T05:31:24.848Z,44.22
2022-12-03T05:33:52.045Z,44.78
2022-12-03T05:36:18.985Z,40.20
2022-12-03T05:38:46.051Z,46.13
2022-12-03T05:41:31.485Z,45.17
2022-12-03T05:43:58.575Z,40.60
2022-12-03T05:46:25.406Z,39.53
2022-12-03T05:48:52.509Z,42.63
2022-12-03T05:51:19.242Z,39.17
2022-12-03T05:53:46.348Z,49.47
2022-12-03T05:56:13.146Z,48.35
2022-12-03T05:58:40.156Z,40.13
2022-12-03T06:01:06.936Z,38.42
2022-12-03T06:03:34.066Z,38.92
2022-12-03T06:06:00.876Z,38.13
2022-12-03T06:08:27.888Z,33.70
2022-12-03T06:10:54.669Z,39.85
2022-12-03T06:13:21.714Z,41.58
2022-12-03T06:15:48.498Z,38.13
2022-12-03T06:18:15.740Z,41.33
2022-12-03T06:20:42.510Z,42.05
2022-12-03T06:23:09.578Z,44.45
2022-12-03T06:25:36.350Z,44.90
2022-12-03T06:28:03.606Z,46.38
2022-12-03T06:30:30.392Z,35.90
2022-12-03T06:32:57.437Z,40.30
2022-12-03T06:35:24.223Z,47.50
2022-12-03T06:37:51.275Z,43.85
2022-12-03T06:40:18.225Z,46.25
2022-12-03T06:42:45.258Z,41.00
2022-12-03T06:45:12.435Z,38.88
2022-12-03T06:47:39.467Z,41.92
2022-12-03T06:50:08.468Z,33.15
2022-12-03T06:52:35.587Z,44.33
2022-12-03T06:55:02.392Z,37.85
2022-12-03T06:57:29.537Z,37.85
2022-12-03T06:59:56.557Z,40.15
2022-12-03T07:02:23.941Z,42.05
2022-12-03T07:04:50.858Z,40.03
2022-12-03T07:07:17.979Z,41.58
2022-12-03T07:09:44.814Z,45.92
2022-12-03T07:12:11.919Z,42.95
2022-12-03T07:14:38.718Z,44.70
2022-12-03T07:17:05.917Z,46.58
2022-12-03T07:19:33.330Z,45.20
2022-12-03T07:22:00.795Z,45.47
2022-12-03T07:24:27.713Z,43.28
2022-12-03T07:26:55.029Z,39.20
2022-12-03T07:29:22.075Z,45.22
2022-12-03T07:31:49.413Z,37.88
2022-12-03T07:34:16.237Z,45.15
2022-12-03T07:36:43.623Z,44.38
2022-12-03T07:39:10.783Z,45.47
2022-12-03T07:41:37.804Z,44.60
2022-12-03T07:44:07.814Z,43.65
2022-12-03T07:46:39.530Z,44.25
2022-12-03T07:49:06.341Z,48.97
2022-12-03T07:51:33.402Z,43.83
2022-12-03T07:54:00.154Z,40.42
2022-12-03T07:56:27.244Z,44.50
2022-12-03T07:58:54.057Z,54.25
2022-12-03T08:01:21.159Z,44.13
2022-12-03T08:03:47.918Z,48.13
2022-12-03T08:06:14.975Z,42.22
2022-12-03T08:08:43.361Z,42.95
2022-12-03T08:11:14.811Z,48.75
2022-12-03T08:13:41.659Z,49.40
2022-12-03T08:16:20.615Z,49.83
2022-12-03T08:18:48.721Z,45.17
2022-12-03T08:21:21.705Z,50.25
2022-12-03T08:23:48.566Z,48.45
2022-12-03T08:26:28.069Z,39.13
2022-12-03T08:28:54.975Z,46.65
2022-12-03T08:31:33.485Z,49.88
2022-12-03T08:34:18.765Z,40.47
2022-12-03T08:36:47.171Z,40.45
2022-12-03T08:39:37.908Z,43.50
2022-12-03T08:42:26.681Z,42.63
2022-12-03T08:44:55.339Z,39.45
2022-12-03T08:47:24.465Z,42.13
2022-12-03T08:50:00.347Z,34.92
2022-12-03T08:52:32.447Z,41.70
2022-12-03T08:55:02.793Z,35.65
2022-12-03T08:57:32.753Z,41.63
2022-12-03T09:00:19.877Z,37.42
2022-12-03T09:02:52.370Z,31.92
2022-12-03T09:05:22.570Z,34.97
2022-12-03T09:07:49.825Z,33.30
2022-12-03T09:10:16.781Z,36.15
2022-12-03T09:12:46.721Z,44.78
2022-12-03T09:15:13.493Z,37.88
2022-12-03T09:17:40.550Z,30.23
2022-12-03T09:20:07.886Z,33.50
2022-12-03T09:22:34.976Z,40.58
2022-12-03T09:25:01.717Z,32.13
2022-12-03T09:27:28.778Z,36.55
2022-12-03T09:29:55.553Z,32.28
2022-12-03T09:32:22.783Z,34.90
2022-12-03T09:34:49.526Z,33.72
2022-12-03T09:37:16.527Z,35.15
2022-12-03T09:39:43.273Z,33.33
2022-12-03T09:42:10.737Z,36.17
2022-12-03T09:44:38.272Z,32.30
2022-12-03T09:47:06.155Z,31.42
2022-12-03T09:49:35.762Z,33.72
2022-12-03T09:52:05.003Z,36.22
2022-12-03T09:54:33.021Z,36.05
2022-12-03T09:57:02.478Z,36.28
2022-12-03T09:59:34.324Z,37.03
2022-12-03T10:02:02.258Z,34.22
2022-12-03T10:04:30.081Z,31.35
2022-12-03T10:06:58.933Z,36.10
2022-12-03T10:09:28.558Z,31.25
2022-12-03T10:11:59.981Z,30.77
2022-12-03T10:14:27.609Z,30.75
2022-12-03T10:16:55.543Z,27.83
2022-12-03T10:19:35.415Z,28.58
2022-12-03T10:22:02.518Z,26.25
2022-12-03T10:24:34.484Z,26.05
2022-12-03T10:27:30.651Z,24.50
2022-12-03T10:29:59.656Z,25.02
2022-12-03T10:32:48.115Z,29.20
2022-12-03T10:35:41.396Z,30.45
2022-12-03T10:38:22.394Z,65.28
2022-12-03T10:40:49.659Z,28.35
2022-12-03T10:43:19.607Z,27.08
2022-12-03T10:45:51.420Z,26.90
2022-12-03T10:48:27.511Z,23.50
2022-12-03T10:51:07.165Z,23.77
2022-12-03T10:53:37.168Z,34.63
2022-12-03T10:56:06.881Z,32.03
2022-12-03T10:58:36.000Z,30.83
2022-12-03T11:01:06.893Z,29.05
2022-12-03T11:03:35.980Z,25.55
2022-12-03T11:06:03.822Z,24.75
2022-12-03T11:08:35.383Z,25.25
2022-12-03T11:11:08.610Z,27.45
2022-12-03T11:13:35.602Z,26.45
2022-12-03T11:16:04.777Z,27.50
2022-12-03T11:18:37.697Z,28.42
2022-12-03T11:21:13.135Z,22.05
2022-12-03T11:23:46.134Z,24.05
2022-12-03T11:26:19.863Z,19.48
2022-12-03T11:28:47.036Z,19.85
2022-12-03T11:31:36.855Z,21.60
2022-12-03T11:34:19.655Z,28.52
2022-12-03T11:37:11.471Z,25.88
2022-12-03T11:39:50.992Z,20.88
2022-12-03T11:42:26.680Z,18.20
2022-12-03T11:45:06.448Z,21.80
2022-12-03T11:47:43.858Z,18.35
2022-12-03T11:50:32.569Z,28.83
2022-12-03T11:53:15.628Z,25.75
2022-12-03T11:55:48.460Z,19.88
2022-12-03T11:58:17.278Z,22.15
2022-12-03T12:00:52.606Z,21.08
2022-12-03T12:03:36.443Z,24.67
2022-12-03T12:06:15.331Z,21.10
2022-12-03T12:09:03.912Z,21.40
2022-12-03T12:11:33.737Z,23.30
2022-12-03T12:14:02.894Z,23.20
2022-12-03T12:16:51.508Z,22.10
2022-12-03T12:19:49.817Z,24.40
2022-12-03T12:22:27.172Z,22.75
2022-12-03T12:24:55.610Z,22.30
2022-12-03T12:27:31.714Z,20.50
2022-12-03T12:30:13.659Z,22.10
2022-12-03T12:32:50.342Z,19.50
2022-12-03T12:35:25.475Z,22.73
2022-12-03T12:38:00.494Z,23.30
2022-12-03T12:40:30.379Z,24.55
2022-12-03T12:43:05.386Z,21.10
2022-12-03T12:45:36.450Z,25.40
2022-12-03T12:48:24.840Z,25.63
2022-12-03T12:51:13.082Z,25.33
2022-12-03T12:53:42.928Z,21.35
2022-12-03T12:56:28.074Z,24.52
2022-12-03T12:58:59.373Z,20.17
2022-12-03T13:01:31.699Z,20.10
2022-12-03T13:03:59.571Z,21.25
2022-12-03T13:06:29.399Z,26.25
2022-12-03T13:08:57.107Z,23.80
2022-12-03T13:11:42.352Z,24.27
2022-12-03T13:14:18.968Z,22.85
2022-12-03T13:16:47.369Z,24.83
2022-12-03T13:19:22.859Z,24.40
2022-12-03T13:21:51.412Z,28.42
2022-12-03T13:24:42.588Z,22.25
2022-12-03T13:27:18.105Z,25.52
2022-12-03T13:29:56.129Z,22.73
2022-12-03T13:32:33.610Z,22.98
2022-12-03T13:35:07.138Z,27.52
2022-12-03T13:37:34.205Z,23.08
2022-12-03T13:40:12.595Z,22.88
2022-12-03T13:42:39.495Z,21.40
2022-12-03T13:45:29.649Z,21.02
2022-12-03T13:48:00.109Z,21.92
2022-12-03T13:50:38.857Z,22.90
2022-12-03T13:53:28.075Z,21.73
2022-12-03T13:56:15.742Z,19.75
2022-12-03T13:58:42.518Z,24.73
2022-12-03T14:01:09.627Z,17.60
2022-12-03T14:03:36.437Z,22.80
2022-12-03T14:06:03.514Z,21.67
2022-12-03T14:08:30.278Z,25.23
2022-12-03T14:11:00.471Z,22.40
2022-12-03T14:13:27.773Z,24.13
2022-12-03T14:15:55.362Z,20.55
2022-12-03T14:18:22.260Z,22.83
2022-12-03T14:20:49.425Z,23.95
2022-12-03T14:23:16.261Z,25.05
2022-12-03T14:25:44.080Z,23.25
2022-12-03T14:28:11.103Z,25.98
2022-12-03T14:30:38.147Z,26.35
2022-12-03T14:33:04.955Z,25.83
2022-12-03T14:35:32.036Z,21.40
2022-12-03T14:37:58.831Z,23.90
2022-12-03T14:40:26.340Z,22.92
2022-12-03T14:42:53.128Z,26.40
2022-12-03T14:45:20.952Z,23.50
2022-12-03T14:47:47.681Z,22.33
2022-12-03T14:50:14.827Z,23.58
2022-12-03T14:52:41.892Z,21.50
2022-12-03T14:55:09.165Z,23.45
2022-12-03T14:57:35.893Z,22.98
2022-12-03T15:00:03.974Z,26.55
2022-12-03T15:02:30.853Z,25.92
2022-12-03T15:04:58.052Z,24.50
2022-12-03T15:07:24.825Z,26.92
2022-12-03T15:09:52.236Z,30.13
2022-12-03T15:12:19.294Z,22.15
2022-12-03T15:14:47.495Z,27.35
2022-12-03T15:17:14.372Z,28.23
2022-12-03T15:19:41.602Z,23.50
2022-12-03T15:22:08.354Z,29.50
2022-12-03T15:24:35.402Z,24.70
2022-12-03T15:27:02.127Z,29.05
2022-12-03T15:29:29.277Z,28.55
2022-12-03T15:31:56.135Z,28.85
2022-12-03T15:34:23.547Z,29.05
2022-12-03T15:36:51.216Z,28.35
2022-12-03T15:39:18.619Z,32.33
2022-12-03T15:41:45.359Z,31.92
2022-12-03T15:44:12.420Z,30.67
2022-12-03T15:46:39.284Z,27.38
2022-12-03T15:49:06.476Z,26.70
2022-12-03T15:51:33.257Z,29.60
2022-12-03T15:54:00.305Z,31.35
2022-12-03T15:56:27.054Z,25.70
2022-12-03T15:58:54.245Z,27.95
2022-12-03T16:01:21.088Z,28.88
2022-12-03T16:03:48.206Z,28.45
2022-12-03T16:06:15.029Z,33.03
2022-12-03T16:08:42.142Z,27.83
2022-12-03T16:11:08.952Z,31.27
2022-12-03T16:13:36.053Z,31.65
2022-12-03T16:16:02.839Z,31.70
2022-12-03T16:18:32.381Z,32.70
2022-12-03T16:20:59.138Z,29.02
2022-12-03T16:23:26.210Z,34.70
2022-12-03T16:25:52.961Z,33.00
2022-12-03T16:28:19.982Z,34.63
2022-12-03T16:30:46.837Z,31.35
2022-12-03T16:33:13.911Z,29.13
2022-12-03T16:35:40.674Z,34.05
2022-12-03T16:38:07.698Z,35.13
2022-12-03T16:40:34.447Z,32.78
2022-12-03T16:43:03.375Z,33.67
2022-12-03T16:45:40.878Z,33.22
2022-12-03T16:48:07.905Z,34.17
2022-12-03T16:50:37.539Z,38.80
2022-12-03T16:53:04.708Z,30.67
2022-12-03T16:55:31.515Z,28.40
2022-12-03T16:57:58.568Z,39.67
2022-12-03T17:00:25.982Z,34.08
2022-12-03T17:02:53.118Z,32.88
2022-12-03T17:05:20.106Z,32.33
2022-12-03T17:07:47.195Z,32.45
2022-12-03T17:10:14.086Z,34.05
2022-12-03T17:13:08.081Z,40.67
2022-12-03T17:15:28.080Z,36.20
2022-12-03T17:17:55.252Z,34.47
2022-12-03T17:20:22.209Z,44.42
2022-12-03T17:22:49.313Z,38.90
2022-12-03T17:25:16.187Z,41.00
2022-12-03T17:27:45.560Z,33.90
2022-12-03T17:30:13.247Z,35.95
2022-12-03T17:32:40.427Z,36.05
2022-12-03T17:35:07.881Z,40.78
2022-12-03T17:37:35.053Z,34.28
2022-12-03T17:40:02.122Z,39.40
2022-12-03T17:42:29.149Z,36.58
2022-12-03T17:44:55.915Z,34.33
2022-12-03T17:47:22.931Z,35.55
2022-12-03T17:49:49.646Z,36.45
2022-12-03T17:52:16.746Z,42.53
2022-12-03T17:55:09.227Z,36.42
2022-12-03T17:57:30.554Z,44.60
2022-12-03T17:59:57.491Z,43.97
2022-12-03T18:02:24.671Z,40.40
2022-12-03T18:04:51.553Z,38.20
2022-12-03T18:07:18.594Z,43.88
2022-12-03T18:09:45.322Z,44.08
2022-12-03T18:12:12.364Z,41.75
2022-12-03T18:14:39.138Z,45.67
2022-12-03T18:17:06.203Z,44.53
2022-12-03T18:19:32.945Z,44.63
2022-12-03T18:22:00.003Z,44.22
2022-12-03T18:24:26.802Z,43.53
2022-12-03T18:26:53.805Z,44.45
2022-12-03T18:29:20.630Z,43.25
2022-12-03T18:31:47.718Z,40.80
2022-12-03T18:34:14.912Z,42.45
2022-12-03T18:36:42.152Z,49.35
2022-12-03T18:39:20.118Z,47.53
2022-12-03T18:41:47.182Z,40.38
2022-12-03T18:44:13.980Z,44.50
2022-12-03T18:46:56.892Z,46.03
2022-12-03T18:49:23.768Z,44.35
2022-12-03T18:51:56.018Z,43.95
2022-12-03T18:54:25.593Z,44.30
2022-12-03T18:56:56.465Z,37.72
2022-12-03T18:59:31.865Z,40.38
2022-12-03T19:01:58.977Z,39.42
2022-12-03T19:04:25.741Z,41.92
2022-12-03T19:07:04.951Z,45.22
2022-12-03T19:09:36.601Z,45.38
2022-12-03T19:12:04.383Z,41.72
2022-12-03T19:14:31.464Z,43.20
2022-12-03T19:17:02.913Z,41.70
2022-12-03T19:19:29.900Z,39.60
2022-12-03T19:21:57.232Z,46.10
2022-12-03T19:24:25.600Z,41.55
2022-12-03T19:26:55.382Z,40.55
2022-12-03T19:29:25.041Z,37.08
2022-12-03T19:31:52.585Z,40.08
2022-12-03T19:34:19.508Z,39.75
2022-12-03T19:36:47.508Z,41.30
2022-12-03T19:39:17.337Z,40.42
2022-12-03T19:41:44.752Z,42.40
2022-12-03T19:44:16.315Z,47.65
2022-12-03T19:46:44.214Z,38.83
2022-12-03T19:49:11.540Z,39.13
2022-12-03T19:51:38.633Z,37.63
2022-12-03T19:54:07.151Z,40.58
2022-12-03T19:56:35.082Z,42.13
2022-12-03T19:59:02.563Z,35.30
2022-12-03T20:01:32.378Z,36.33
2022-12-03T20:04:01.025Z,37.65
2022-12-03T20:06:31.669Z,38.70
2022-12-03T20:09:00.776Z,32.45
2022-12-03T20:11:30.957Z,40.45
2022-12-03T20:14:07.335Z,36.67
2022-12-03T20:16:35.252Z,40.35
2022-12-03T20:19:04.757Z,37.85
2022-12-03T20:21:36.542Z,38.10
2022-12-03T20:24:04.478Z,36.28
2022-12-03T20:26:32.028Z,39.35
2022-12-03T20:28:58.900Z,38.83
2022-12-03T20:31:28.753Z,39.97
2022-12-03T20:33:58.091Z,41.25
2022-12-03T20:36:25.585Z,34.80
2022-12-03T20:38:57.349Z,35.58
2022-12-03T20:41:25.182Z,39.72
2022-12-03T20:43:53.252Z,35.83
2022-12-03T20:46:26.660Z,35.75
2022-12-03T20:48:54.176Z,43.67
2022-12-03T20:51:25.123Z,33.88
2022-12-03T20:53:52.363Z,36.47
2022-12-03T20:56:26.052Z,42.88
2022-12-03T20:58:56.201Z,38.63
2022-12-03T21:01:26.429Z,32.47
2022-12-03T21:03:54.969Z,35.33
2022-12-03T21:06:23.747Z,36.65
2022-12-03T21:08:53.022Z,38.60
2022-12-03T21:11:23.984Z,40.00
2022-12-03T21:13:51.583Z,38.13
2022-12-03T21:16:39.290Z,47.67
2022-12-03T21:19:08.653Z,35.28
2022-12-03T21:21:36.028Z,34.15
2022-12-03T21:24:02.832Z,36.45
2022-12-03T21:26:32.778Z,39.00
2022-12-03T21:28:59.620Z,38.92
2022-12-03T21:31:27.009Z,34.28
2022-12-03T21:33:55.295Z,38.05
2022-12-03T21:36:23.547Z,39.83
2022-12-03T21:38:50.675Z,40.97
2022-12-03T21:41:18.246Z,44.40
2022-12-03T21:43:45.170Z,44.42
2022-12-03T21:47:11.640Z,45.33
2022-12-03T21:49:02.107Z,52.30
2022-12-03T21:51:29.215Z,49.15
2022-12-03T21:53:56.099Z,48.25
2022-12-03T21:56:23.232Z,47.28
2022-12-03T21:58:50.122Z,41.22
2022-12-03T22:01:20.784Z,49.20
2022-12-03T22:03:48.065Z,41.85
2022-12-03T22:06:15.854Z,44.88
2022-12-03T22:08:43.304Z,43.30
2022-12-03T22:11:14.909Z,51.47
2022-12-03T22:13:42.628Z,49.08
2022-12-03T22:16:14.204Z,47.28
2022-12-03T22:18:41.037Z,45.67
2022-12-03T22:21:17.551Z,49.17
2022-12-03T22:23:45.077Z,50.65
2022-12-03T22:26:15.136Z,51.63
2022-12-03T22:28:46.671Z,48.42
2022-12-03T22:31:14.595Z,54.85
2022-12-03T22:33:41.597Z,47.25
2022-12-03T22:36:17.999Z,46.75
2022-12-03T22:38:46.603Z,49.40
2022-12-03T22:41:14.432Z,44.33
2022-12-03T22:43:41.539Z,50.17
2022-12-03T22:46:13.348Z,47.08
2022-12-03T22:48:45.643Z,52.67
2022-12-03T22:51:21.277Z,48.30
2022-12-03T22:53:55.835Z,47.65
2022-12-03T22:56:23.575Z,44.80
2022-12-03T22:58:51.044Z,42.72
2022-12-03T23:01:25.856Z,37.10
2022-12-03T23:03:52.726Z,35.95
2022-12-03T23:06:20.325Z,40.53
2022-12-03T23:08:47.663Z,44.47
2022-12-03T23:11:15.637Z,36.13
2022-12-03T23:13:42.545Z,40.78
2022-12-03T23:16:24.717Z,36.58
2022-12-03T23:18:51.861Z,37.00
2022-12-03T23:21:28.518Z,39.67
2022-12-03T23:23:56.778Z,37.70
2022-12-03T23:26:23.947Z,38.33
2022-12-03T23:28:50.788Z,41.03
2022-12-03T23:31:23.097Z,38.28
2022-12-03T23:33:50.955Z,35.55
2022-12-03T23:36:18.729Z,34.72
2022-12-03T23:38:45.710Z,38.53
2022-12-03T23:41:16.106Z,38.75
2022-12-03T23:43:43.461Z,43.13
2022-12-03T23:46:15.986Z,38.47
2022-12-03T23:48:43.639Z,37.30
2022-12-03T23:51:14.525Z,35.78
2022-12-03T23:53:41.451Z,36.17
2022-12-03T23:56:14.808Z,45.83
2022-12-03T23:58:42.016Z,34.80
